createdAt,value
2023-02-23T00:02:06.378Z,73.28
2023-02-23T00:04:36.932Z,73.23
2023-02-23T00:07:07.170Z,74.64
2023-02-23T00:09:37.580Z,74.50
2023-02-23T00:12:10.826Z,75.23
2023-02-23T00:14:40.742Z,74.77
2023-02-23T00:17:15.401Z,74.37
2023-02-23T00:19:58.869Z,74.69
2023-02-23T00:22:28.694Z,75.59
2023-02-23T00:25:00.151Z,75.51
2023-02-23T00:27:30.210Z,74.95
2023-02-23T00:30:00.762Z,74.97
2023-02-23T00:32:31.424Z,75.77
2023-02-23T00:35:01.405Z,75.72
2023-02-23T00:37:31.616Z,75.82
2023-02-23T00:40:01.410Z,75.63
2023-02-23T00:42:33.340Z,75.27
2023-02-23T00:45:13.196Z,74.70
2023-02-23T00:47:45.747Z,74.57
2023-02-23T00:50:18.665Z,75.01
2023-02-23T00:52:49.377Z,74.45
2023-02-23T00:55:20.135Z,74.74
2023-02-23T00:57:51.180Z,74.96
2023-02-23T01:00:22.451Z,75.37
2023-02-23T01:02:57.796Z,75.25
2023-02-23T01:05:28.220Z,74.74
2023-02-23T01:07:57.635Z,74.97
2023-02-23T01:10:27.883Z,76.38
2023-02-23T01:12:58.745Z,76.16
2023-02-23T01:15:29.487Z,76.16
2023-02-23T01:17:59.299Z,75.65
2023-02-23T01:20:29.288Z,76.14
2023-02-23T01:22:58.779Z,76.29
2023-02-23T01:25:29.880Z,74.57
2023-02-23T01:28:02.162Z,76.78
2023-02-23T01:30:32.823Z,75.27
2023-02-23T01:33:03.168Z,76.15
2023-02-23T01:35:33.785Z,75.10
2023-02-23T01:38:05.229Z,76.87
2023-02-23T01:40:37.727Z,77.80
2023-02-23T01:43:12.497Z,76.42
2023-02-23T01:45:46.520Z,75.30
2023-02-23T01:48:21.320Z,76.59
2023-02-23T01:50:55.077Z,76.49
2023-02-23T01:53:28.718Z,76.22
2023-02-23T01:56:01.859Z,76.18
2023-02-23T01:58:34.197Z,77.21
2023-02-23T02:01:06.004Z,77.18
2023-02-23T02:03:53.709Z,77.61
2023-02-23T02:06:29.424Z,77.83
2023-02-23T02:09:07.020Z,77.91
2023-02-23T02:11:37.888Z,77.77
2023-02-23T02:14:13.599Z,77.18
2023-02-23T02:16:53.376Z,77.24
2023-02-23T02:19:40.828Z,77.01
2023-02-23T02:22:33.250Z,76.89
2023-02-23T02:25:43.464Z,77.02
2023-02-23T02:28:35.030Z,77.30
2023-02-23T02:31:24.494Z,77.18
2023-02-23T02:33:54.507Z,77.75
2023-02-23T02:36:43.108Z,77.61
2023-02-23T02:39:54.260Z,77.15
2023-02-23T02:42:46.129Z,77.44
2023-02-23T02:45:38.927Z,77.12
2023-02-23T02:48:26.233Z,76.47
2023-02-23T02:51:20.513Z,77.05
2023-02-23T02:54:25.706Z,76.55
2023-02-23T02:57:00.899Z,77.27
2023-02-23T02:59:50.795Z,76.77
2023-02-23T03:02:41.937Z,77.56
2023-02-23T03:05:36.686Z,78.04
2023-02-23T03:09:07.603Z,78.55
2023-02-23T03:12:03.423Z,78.75
2023-02-23T03:15:09.003Z,76.95
2023-02-23T03:18:08.793Z,76.79
2023-02-23T03:21:10.212Z,76.94
2023-02-23T03:24:23.983Z,77.78
2023-02-23T03:27:36.520Z,76.73
2023-02-23T03:30:43.043Z,78.07
2023-02-23T03:33:38.905Z,77.38
2023-02-23T03:36:40.635Z,77.71
2023-02-23T03:39:46.743Z,77.80
2023-02-23T03:42:40.265Z,80.42
2023-02-23T03:45:40.068Z,78.87
2023-02-23T03:48:31.729Z,78.03
2023-02-23T03:51:26.036Z,78.05
2023-02-23T03:54:17.893Z,78.16
2023-02-23T03:57:11.744Z,78.90
2023-02-23T04:00:06.796Z,78.98
2023-02-23T04:03:07.257Z,78.91
2023-02-23T04:05:59.476Z,78.74
2023-02-23T04:08:53.001Z,78.81
2023-02-23T04:11:57.660Z,78.65
2023-02-23T04:14:54.713Z,78.56
2023-02-23T04:17:29.756Z,78.60
2023-02-23T04:19:59.378Z,78.96
2023-02-23T04:22:29.802Z,78.68
2023-02-23T04:25:00.360Z,78.84
2023-02-23T04:27:31.631Z,78.24
2023-02-23T04:30:00.850Z,78.27
2023-02-23T04:32:32.203Z,77.74
2023-02-23T04:35:04.877Z,77.48
2023-02-23T04:37:37.464Z,78.35
2023-02-23T04:40:09.258Z,78.87
2023-02-23T04:42:41.550Z,79.75
2023-02-23T04:45:11.613Z,78.97
2023-02-23T04:47:41.888Z,78.86
2023-02-23T04:50:12.796Z,78.46
2023-02-23T04:52:43.814Z,78.07
2023-02-23T04:55:19.663Z,79.53
2023-02-23T04:57:51.289Z,79.43
2023-02-23T05:00:21.903Z,78.59
2023-02-23T05:02:52.356Z,78.95
2023-02-23T05:05:22.538Z,78.41
2023-02-23T05:07:55.657Z,78.51
2023-02-23T05:10:25.292Z,78.78
2023-02-23T05:12:55.868Z,78.70
2023-02-23T05:15:25.658Z,79.83
2023-02-23T05:17:56.395Z,80.74
2023-02-23T05:20:26.426Z,80.16
2023-02-23T05:22:59.788Z,79.38
2023-02-23T05:25:30.302Z,79.41
2023-02-23T05:28:04.159Z,79.83
2023-02-23T05:30:43.164Z,79.04
2023-02-23T05:33:16.671Z,78.81
2023-02-23T05:35:47.507Z,79.23
2023-02-23T05:38:18.237Z,78.69
2023-02-23T05:40:51.886Z,78.55
2023-02-23T05:43:21.644Z,78.76
2023-02-23T05:45:51.653Z,78.69
2023-02-23T05:48:21.723Z,78.66
2023-02-23T05:50:52.870Z,78.33
2023-02-23T05:53:31.270Z,78.66
2023-02-23T05:56:14.611Z,78.81
2023-02-23T05:58:43.683Z,80.43
2023-02-23T06:01:14.644Z,80.28
2023-02-23T06:03:46.477Z,79.63
2023-02-23T06:06:16.479Z,79.96
2023-02-23T06:08:50.293Z,79.19
2023-02-23T06:11:21.068Z,79.30
2023-02-23T06:13:51.193Z,79.24
2023-02-23T06:16:21.453Z,79.34
2023-02-23T06:19:03.589Z,79.15
2023-02-23T06:22:00.225Z,79.34
2023-02-23T06:24:32.031Z,79.08
2023-02-23T06:27:05.964Z,78.62
2023-02-23T06:29:35.512Z,78.55
2023-02-23T06:32:08.118Z,79.36
2023-02-23T06:34:38.795Z,79.15
2023-02-23T06:37:12.656Z,78.35
2023-02-23T06:39:42.475Z,78.57
2023-02-23T06:42:16.065Z,78.62
2023-02-23T06:44:46.308Z,78.45
2023-02-23T06:47:15.553Z,78.77
2023-02-23T06:49:45.989Z,78.93
2023-02-23T06:52:16.554Z,79.26
2023-02-23T06:54:48.839Z,79.11
2023-02-23T06:57:21.915Z,79.24
2023-02-23T06:59:53.727Z,79.11
2023-02-23T07:02:23.126Z,79.05
2023-02-23T07:04:55.216Z,79.29
2023-02-23T07:07:25.495Z,78.54
2023-02-23T07:09:55.513Z,78.62
2023-02-23T07:12:24.694Z,79.09
2023-02-23T07:14:54.900Z,78.58
2023-02-23T07:17:24.993Z,78.59
2023-02-23T07:19:55.990Z,78.54
2023-02-23T07:22:30.653Z,79.10
2023-02-23T07:25:00.318Z,78.64
2023-02-23T07:27:32.687Z,78.38
2023-02-23T07:30:05.905Z,78.30
2023-02-23T07:32:35.746Z,78.19
2023-02-23T07:35:08.489Z,77.97
2023-02-23T07:37:43.684Z,77.94
2023-02-23T07:40:17.036Z,77.64
2023-02-23T07:42:49.464Z,77.32
2023-02-23T07:45:19.473Z,77.20
2023-02-23T07:47:53.066Z,76.87
2023-02-23T07:50:26.771Z,76.75
2023-02-23T07:53:00.534Z,76.30
2023-02-23T07:55:31.316Z,76.08
2023-02-23T07:58:00.564Z,75.83
2023-02-23T08:00:37.410Z,75.45
2023-02-23T08:03:07.992Z,74.98
2023-02-23T08:05:40.538Z,74.42
2023-02-23T08:08:11.694Z,73.34
2023-02-23T08:10:41.951Z,72.70
2023-02-23T08:13:13.552Z,72.00
2023-02-23T08:15:44.716Z,71.44
2023-02-23T08:18:14.311Z,70.54
2023-02-23T08:20:43.520Z,70.36
2023-02-23T08:23:13.572Z,69.30
2023-02-23T08:25:45.016Z,68.50
2023-02-23T08:28:16.689Z,68.07
2023-02-23T08:30:50.491Z,67.61
2023-02-23T08:33:32.753Z,66.80
2023-02-23T08:36:03.638Z,66.51
2023-02-23T08:38:33.233Z,66.49
2023-02-23T08:41:07.867Z,65.06
2023-02-23T08:43:39.912Z,63.92
2023-02-23T08:46:11.708Z,63.18
2023-02-23T08:48:41.413Z,63.28
2023-02-23T08:51:11.480Z,63.27
2023-02-23T08:53:41.973Z,62.83
2023-02-23T08:56:13.786Z,62.34
2023-02-23T08:58:44.086Z,61.63
2023-02-23T09:01:24.465Z,62.15
2023-02-23T09:04:00.851Z,61.55
2023-02-23T09:06:36.086Z,61.26
2023-02-23T09:09:06.294Z,60.44
2023-02-23T09:11:40.859Z,60.03
2023-02-23T09:14:11.085Z,60.01
2023-02-23T09:16:49.706Z,60.01
2023-02-23T09:19:23.014Z,59.84
2023-02-23T09:21:53.750Z,59.53
2023-02-23T09:24:27.781Z,58.79
2023-02-23T09:26:59.956Z,58.24
2023-02-23T09:29:44.353Z,58.60
2023-02-23T09:32:13.913Z,57.70
2023-02-23T09:35:04.516Z,57.78
2023-02-23T09:37:35.252Z,56.48
2023-02-23T09:40:14.318Z,56.06
2023-02-23T09:43:10.779Z,55.41
2023-02-23T09:45:58.342Z,55.00
2023-02-23T09:48:31.252Z,54.74
2023-02-23T09:51:17.150Z,53.68
2023-02-23T09:54:06.335Z,51.92
2023-02-23T09:56:56.760Z,50.67
2023-02-23T09:59:32.745Z,50.06
2023-02-23T10:02:31.531Z,49.32
2023-02-23T10:05:18.911Z,48.74
2023-02-23T10:08:21.868Z,48.26
2023-02-23T10:11:47.127Z,47.76
2023-02-23T10:14:55.922Z,48.07
2023-02-23T10:17:43.741Z,47.01
2023-02-23T10:20:28.556Z,47.19
2023-02-23T10:23:27.055Z,46.63
2023-02-23T10:26:02.712Z,46.89
2023-02-23T10:28:47.739Z,45.72
2023-02-23T10:31:43.849Z,46.32
2023-02-23T10:34:32.458Z,45.40
2023-02-23T10:37:18.288Z,44.44
2023-02-23T10:39:57.049Z,43.83
2023-02-23T10:42:36.458Z,43.23
2023-02-23T10:45:24.887Z,43.02
2023-02-23T10:47:59.745Z,41.71
2023-02-23T10:50:34.137Z,40.63
2023-02-23T10:53:27.777Z,40.63
2023-02-23T10:56:15.574Z,41.01
2023-02-23T10:58:58.497Z,40.32
2023-02-23T11:02:00.789Z,39.83
2023-02-23T11:04:35.879Z,39.10
2023-02-23T11:07:22.336Z,38.38
2023-02-23T11:09:54.671Z,37.64
2023-02-23T11:12:45.633Z,36.81
2023-02-23T11:15:48.049Z,36.22
2023-02-23T11:18:24.429Z,35.97
2023-02-23T11:20:56.686Z,36.53
2023-02-23T11:23:58.539Z,35.97
2023-02-23T11:26:34.384Z,35.73
2023-02-23T11:29:26.224Z,35.38
2023-02-23T11:31:59.660Z,35.11
2023-02-23T11:34:41.332Z,34.70
2023-02-23T11:37:24.342Z,34.98
2023-02-23T11:39:58.099Z,34.43
2023-02-23T11:42:33.869Z,34.33
2023-02-23T11:45:17.217Z,33.57
2023-02-23T11:47:54.016Z,33.81
2023-02-23T11:50:34.147Z,33.17
2023-02-23T11:53:19.773Z,33.75
2023-02-23T11:55:59.005Z,34.04
2023-02-23T11:58:51.725Z,34.27
2023-02-23T12:01:53.307Z,34.06
2023-02-23T12:04:38.061Z,34.01
2023-02-23T12:07:40.690Z,33.80
2023-02-23T12:10:26.322Z,33.79
2023-02-23T12:13:27.433Z,34.27
2023-02-23T12:16:10.862Z,34.69
2023-02-23T12:18:53.028Z,34.66
2023-02-23T12:21:57.166Z,34.37
2023-02-23T12:24:35.005Z,34.55
2023-02-23T12:27:32.900Z,35.19
2023-02-23T12:30:42.662Z,34.95
2023-02-23T12:33:30.678Z,35.32
2023-02-23T12:36:04.719Z,35.08
2023-02-23T12:38:51.995Z,35.36
2023-02-23T12:41:50.426Z,35.64
2023-02-23T12:44:51.522Z,36.20
2023-02-23T12:47:37.311Z,35.76
2023-02-23T12:50:33.250Z,35.54
2023-02-23T12:53:34.397Z,36.14
2023-02-23T12:56:24.737Z,36.72
2023-02-23T12:59:26.192Z,36.84
2023-02-23T13:02:20.015Z,36.67
2023-02-23T13:05:15.997Z,36.69
2023-02-23T13:08:27.318Z,37.21
2023-02-23T13:11:33.676Z,37.29
2023-02-23T13:14:30.872Z,37.59
2023-02-23T13:17:11.796Z,37.38
2023-02-23T13:19:59.203Z,37.09
2023-02-23T13:23:11.363Z,36.90
2023-02-23T13:25:51.097Z,36.91
2023-02-23T13:28:44.497Z,36.42
2023-02-23T13:31:36.785Z,35.68
2023-02-23T13:34:26.277Z,36.69
2023-02-23T13:36:57.851Z,36.45
2023-02-23T13:39:48.253Z,36.40
2023-02-23T13:42:49.415Z,36.80
2023-02-23T13:45:52.804Z,36.67
2023-02-23T13:49:05.495Z,36.09
2023-02-23T13:51:49.931Z,36.80
2023-02-23T13:54:34.953Z,36.79
2023-02-23T13:57:17.324Z,36.58
2023-02-23T13:59:47.972Z,36.88
2023-02-23T14:02:41.412Z,36.42
2023-02-23T14:05:19.140Z,36.58
2023-02-23T14:07:54.390Z,36.60
2023-02-23T14:10:46.593Z,36.84
2023-02-23T14:13:17.511Z,37.22
2023-02-23T14:16:10.047Z,37.29
2023-02-23T14:19:10.916Z,37.24
2023-02-23T14:21:53.063Z,37.27
2023-02-23T14:24:25.573Z,37.85
2023-02-23T14:27:10.015Z,38.24
2023-02-23T14:29:45.970Z,38.26
2023-02-23T14:32:16.454Z,38.19
2023-02-23T14:34:52.444Z,38.24
2023-02-23T14:37:26.913Z,38.08
2023-02-23T14:40:09.423Z,37.86
2023-02-23T14:42:40.655Z,37.53
2023-02-23T14:45:20.880Z,37.33
2023-02-23T14:47:55.732Z,37.45
2023-02-23T14:50:34.028Z,37.85
2023-02-23T14:53:09.167Z,38.02
2023-02-23T14:55:43.852Z,38.34
2023-02-23T14:58:40.329Z,38.92
2023-02-23T15:01:10.062Z,39.16
2023-02-23T15:03:39.475Z,40.01
2023-02-23T15:06:12.237Z,40.40
2023-02-23T15:08:46.235Z,40.86
2023-02-23T15:11:23.049Z,41.02
2023-02-23T15:13:54.521Z,41.39
2023-02-23T15:16:35.927Z,41.53
2023-02-23T15:19:07.988Z,41.66
2023-02-23T15:21:40.236Z,42.02
2023-02-23T15:24:21.984Z,42.54
2023-02-23T15:26:53.073Z,42.74
2023-02-23T15:29:27.199Z,42.97
2023-02-23T15:32:15.332Z,43.68
2023-02-23T15:34:44.905Z,43.84
2023-02-23T15:37:25.522Z,43.77
2023-02-23T15:40:04.316Z,44.72
2023-02-23T15:42:45.368Z,45.27
2023-02-23T15:45:43.342Z,45.23
2023-02-23T15:48:18.980Z,45.40
2023-02-23T15:50:53.627Z,45.51
2023-02-23T15:53:42.015Z,46.28
2023-02-23T15:56:20.896Z,46.12
2023-02-23T15:58:57.289Z,46.80
2023-02-23T16:01:30.868Z,46.88
2023-02-23T16:04:09.647Z,47.74
2023-02-23T16:06:51.473Z,47.87
2023-02-23T16:09:26.754Z,49.52
2023-02-23T16:12:09.831Z,49.56
2023-02-23T16:14:50.360Z,49.90
2023-02-23T16:17:27.268Z,50.89
2023-02-23T16:20:24.772Z,50.09
2023-02-23T16:22:55.538Z,52.27
2023-02-23T16:25:29.035Z,51.77
2023-02-23T16:28:10.352Z,52.23
2023-02-23T16:30:43.884Z,51.99
2023-02-23T16:33:26.927Z,54.02
2023-02-23T16:36:11.437Z,53.21
2023-02-23T16:38:49.825Z,54.09
2023-02-23T16:41:23.197Z,55.08
2023-02-23T16:43:55.907Z,55.04
2023-02-23T16:46:56.651Z,55.38
2023-02-23T16:49:25.945Z,55.78
2023-02-23T16:52:00.660Z,56.14
2023-02-23T16:54:29.937Z,54.73
2023-02-23T16:56:59.768Z,56.22
2023-02-23T16:59:36.682Z,55.98
2023-02-23T17:02:10.627Z,57.04
2023-02-23T17:04:40.002Z,57.40
2023-02-23T17:07:09.233Z,56.84
2023-02-23T17:09:44.195Z,58.17
2023-02-23T17:12:23.063Z,57.25
2023-02-23T17:14:55.360Z,57.32
2023-02-23T17:17:24.893Z,57.72
2023-02-23T17:19:54.152Z,57.81
2023-02-23T17:22:23.827Z,58.19
2023-02-23T17:24:53.912Z,58.80
2023-02-23T17:27:23.194Z,59.60
2023-02-23T17:30:01.045Z,59.65
2023-02-23T17:32:48.851Z,60.39
2023-02-23T17:35:35.696Z,61.09
2023-02-23T17:38:13.245Z,61.04
2023-02-23T17:40:42.474Z,61.61
2023-02-23T17:43:12.104Z,61.08
2023-02-23T17:45:50.162Z,61.94
2023-02-23T17:48:29.206Z,61.73
2023-02-23T17:51:09.508Z,63.33
2023-02-23T17:53:56.651Z,63.46
2023-02-23T17:56:27.107Z,63.49
2023-02-23T17:58:59.340Z,62.77
2023-02-23T18:01:28.729Z,63.30
2023-02-23T18:04:07.316Z,65.49
2023-02-23T18:06:36.420Z,64.71
2023-02-23T18:09:17.472Z,63.53
2023-02-23T18:12:04.140Z,62.38
2023-02-23T18:14:51.440Z,64.67
2023-02-23T18:17:21.042Z,64.65
2023-02-23T18:19:53.396Z,64.03
2023-02-23T18:22:28.213Z,65.08
2023-02-23T18:25:00.566Z,66.21
2023-02-23T18:27:30.637Z,66.02
2023-02-23T18:30:00.311Z,65.21
2023-02-23T18:32:31.577Z,65.44
2023-02-23T18:35:20.393Z,65.84
2023-02-23T18:37:50.224Z,65.38
2023-02-23T18:40:48.072Z,66.42
2023-02-23T18:43:26.369Z,66.94
2023-02-23T18:46:16.818Z,68.41
2023-02-23T18:49:12.884Z,66.71
2023-02-23T18:51:43.369Z,67.48
2023-02-23T18:54:34.395Z,68.95
2023-02-23T18:57:16.858Z,68.70
2023-02-23T18:59:53.098Z,68.88
2023-02-23T19:02:31.543Z,68.90
2023-02-23T19:05:33.485Z,68.67
2023-02-23T19:08:21.220Z,70.01
2023-02-23T19:11:01.513Z,70.65
2023-02-23T19:13:43.932Z,69.88
2023-02-23T19:16:38.618Z,69.28
2023-02-23T19:19:13.926Z,69.33
2023-02-23T19:21:52.052Z,70.45
2023-02-23T19:24:37.031Z,69.57
2023-02-23T19:27:11.501Z,69.17
2023-02-23T19:29:44.576Z,69.38
2023-02-23T19:32:24.001Z,70.00
2023-02-23T19:34:59.051Z,70.97
2023-02-23T19:37:30.249Z,71.26
2023-02-23T19:40:01.290Z,71.43
2023-02-23T19:42:41.121Z,71.10
2023-02-23T19:45:19.282Z,71.07
2023-02-23T19:47:56.981Z,71.99
2023-02-23T19:50:41.633Z,72.38
2023-02-23T19:53:19.453Z,72.56
2023-02-23T19:56:12.981Z,72.75
2023-02-23T19:59:00.505Z,72.21
2023-02-23T20:01:44.170Z,72.14
2023-02-23T20:04:30.344Z,72.54
2023-02-23T20:07:19.621Z,71.86
2023-02-23T20:12:46.882Z,71.81
2023-02-23T20:15:20.370Z,71.97
2023-02-23T20:17:49.271Z,72.57
2023-02-23T20:20:23.445Z,72.18
2023-02-23T20:22:59.303Z,72.75
2023-02-23T20:25:43.812Z,73.22
2023-02-23T20:28:18.280Z,73.55
2023-02-23T20:30:49.312Z,72.72
2023-02-23T20:33:20.335Z,72.87
2023-02-23T20:35:52.430Z,72.14
2023-02-23T20:38:29.481Z,73.00
2023-02-23T20:41:04.282Z,73.32
2023-02-23T20:43:45.766Z,74.14
2023-02-23T20:46:22.675Z,73.62
2023-02-23T20:48:59.052Z,73.48
2023-02-23T20:51:31.302Z,74.94
2023-02-23T20:54:04.265Z,75.92
2023-02-23T20:56:39.051Z,73.25
2023-02-23T20:59:19.814Z,73.47
2023-02-23T21:01:52.523Z,75.11
2023-02-23T21:04:22.067Z,75.70
2023-02-23T21:06:52.518Z,75.34
2023-02-23T21:09:37.993Z,74.98
2023-02-23T21:12:17.003Z,74.30
2023-02-23T21:14:50.514Z,75.40
2023-02-23T21:17:21.200Z,75.27
2023-02-23T21:19:57.855Z,74.82
2023-02-23T21:22:29.540Z,75.85
2023-02-23T21:25:01.055Z,75.30
2023-02-23T21:27:33.204Z,75.13
2023-02-23T21:30:10.997Z,75.12
2023-02-23T21:32:44.315Z,75.90
2023-02-23T21:35:16.118Z,77.18
2023-02-23T21:37:47.533Z,75.96
2023-02-23T21:40:21.460Z,76.12
2023-02-23T21:42:52.728Z,76.65
2023-02-23T21:45:22.186Z,76.47
2023-02-23T21:47:53.198Z,76.56
2023-02-23T21:50:23.216Z,76.78
2023-02-23T21:52:56.411Z,76.60
2023-02-23T21:55:27.588Z,76.76
2023-02-23T21:57:58.941Z,77.46
2023-02-23T22:00:31.495Z,77.39
2023-02-23T22:03:02.197Z,77.45
2023-02-23T22:05:35.514Z,77.38
2023-02-23T22:08:04.692Z,76.90
2023-02-23T22:10:35.117Z,78.20
2023-02-23T22:13:05.391Z,77.71
2023-02-23T22:15:37.206Z,78.24
2023-02-23T22:18:06.416Z,77.73
2023-02-23T22:20:36.273Z,77.36
2023-02-23T22:23:07.126Z,78.17
2023-02-23T22:25:36.350Z,76.84
2023-02-23T22:28:09.484Z,76.92
2023-02-23T22:30:44.861Z,78.18
2023-02-23T22:33:15.247Z,78.59
2023-02-23T22:35:47.546Z,78.78
2023-02-23T22:38:19.633Z,78.47
2023-02-23T22:40:48.801Z,78.52
2023-02-23T22:43:22.451Z,78.22
2023-02-23T22:45:57.407Z,78.09
2023-02-23T22:48:28.956Z,79.17
2023-02-23T22:51:00.424Z,78.53
2023-02-23T22:53:31.595Z,78.61
2023-02-23T22:56:04.676Z,78.61
2023-02-23T22:58:36.582Z,77.91
2023-02-23T23:01:06.897Z,77.85
2023-02-23T23:03:40.515Z,76.75
2023-02-23T23:06:14.004Z,78.35
2023-02-23T23:08:46.117Z,77.68
2023-02-23T23:11:36.769Z,79.06
2023-02-23T23:14:11.464Z,78.79
2023-02-23T23:16:48.694Z,78.95
2023-02-23T23:19:26.379Z,78.76
2023-02-23T23:21:56.144Z,79.54
2023-02-23T23:24:26.180Z,78.31
2023-02-23T23:27:09.685Z,78.56
2023-02-23T23:29:41.156Z,78.71
2023-02-23T23:32:40.471Z,78.04
2023-02-23T23:35:16.067Z,78.93
2023-02-23T23:37:46.508Z,79.70
2023-02-23T23:40:16.510Z,79.39
2023-02-23T23:42:48.432Z,80.60
2023-02-23T23:45:24.619Z,80.18
2023-02-23T23:47:55.205Z,80.26
2023-02-23T23:50:27.570Z,79.88
2023-02-23T23:52:57.361Z,79.05
2023-02-23T23:55:31.707Z,78.83
2023-02-23T23:58:00.846Z,79.28
